createdAt,value
2018-11-07T00:00:51.818Z,101433.52
2018-11-07T00:03:20.626Z,101433.05
2018-11-07T00:05:49.126Z,101433.11
2018-11-07T00:08:18.314Z,101433.66
2018-11-07T00:10:46.745Z,101433.80
2018-11-07T00:13:15.345Z,101429.95
2018-11-07T00:15:44.526Z,101431.95
2018-11-07T00:18:13.273Z,101426.17
2018-11-07T00:20:41.727Z,101424.23
2018-11-07T00:23:10.366Z,101420.66
2018-11-07T00:25:39.305Z,101429.39
2018-11-07T00:28:07.805Z,101427.36
2018-11-07T00:30:36.634Z,101426.80
2018-11-07T00:33:05.990Z,101423.84
2018-11-07T00:35:34.438Z,101424.33
2018-11-07T00:38:03.094Z,101421.23
2018-11-07T00:40:31.622Z,101423.98
2018-11-07T00:43:00.109Z,101421.04
2018-11-07T00:45:29.362Z,101424.67
2018-11-07T00:47:58.099Z,101422.06
2018-11-07T00:50:26.548Z,101428.25
2018-11-07T00:52:55.423Z,101431.76
2018-11-07T00:55:24.154Z,101439.94
2018-11-07T00:57:52.628Z,101433.89
2018-11-07T01:00:21.605Z,101441.58
2018-11-07T01:02:50.488Z,101443.02
2018-11-07T01:05:18.940Z,101447.88
2018-11-07T01:07:48.479Z,101448.41
2018-11-07T01:10:17.029Z,101450.27
2018-11-07T01:12:45.477Z,101450.00
2018-11-07T01:15:14.818Z,101454.48
2018-11-07T01:17:43.394Z,101445.41
2018-11-07T01:20:13.625Z,101447.34
2018-11-07T01:22:42.297Z,101444.05
2018-11-07T01:25:11.166Z,101444.61
2018-11-07T01:27:39.621Z,101448.26
2018-11-07T01:30:10.364Z,101452.80
2018-11-07T01:32:38.999Z,101455.52
2018-11-07T01:35:07.697Z,101451.21
2018-11-07T01:37:36.329Z,101457.45
2018-11-07T01:40:10.598Z,101458.54
2018-11-07T01:42:39.330Z,101459.02
2018-11-07T01:45:08.912Z,101456.97
2018-11-07T01:47:38.174Z,101453.19
2018-11-07T01:50:08.286Z,101453.66
2018-11-07T01:52:36.922Z,101449.92
2018-11-07T01:55:05.877Z,101442.09
2018-11-07T01:57:34.499Z,101447.39
2018-11-07T02:00:02.966Z,101453.58
2018-11-07T02:02:31.881Z,101447.68
2018-11-07T02:05:00.710Z,101452.23
2018-11-07T02:07:29.193Z,101450.73
2018-11-07T02:09:58.602Z,101453.00
2018-11-07T02:12:27.117Z,101451.77
2018-11-07T02:14:55.617Z,101453.63
2018-11-07T02:17:28.686Z,101457.14
2018-11-07T02:19:57.286Z,101467.35
2018-11-07T02:22:26.259Z,101469.14
2018-11-07T02:24:55.489Z,101470.93
2018-11-07T02:27:23.952Z,101340.88
2018-11-07T02:29:52.385Z,101471.56
2018-11-07T02:32:21.318Z,101463.31
2018-11-07T02:34:49.757Z,101467.30
2018-11-07T02:37:18.429Z,101473.77
2018-11-07T02:39:47.078Z,101468.05
2018-11-07T02:42:15.510Z,101464.61
2018-11-07T02:44:43.985Z,101465.02
2018-11-07T02:47:12.733Z,101460.77
2018-11-07T02:49:41.178Z,101459.53
2018-11-07T02:52:09.617Z,101457.81
2018-11-07T02:54:38.237Z,101451.77
2018-11-07T02:57:06.693Z,101458.30
2018-11-07T02:59:35.130Z,101453.41
2018-11-07T03:02:04.566Z,101455.54
2018-11-07T03:04:33.022Z,101451.55
2018-11-07T03:07:01.501Z,101451.62
2018-11-07T03:09:30.145Z,101456.29
2018-11-07T03:11:58.590Z,101453.61
2018-11-07T03:14:27.039Z,101451.34
2018-11-07T03:16:56.166Z,101453.05
2018-11-07T03:19:24.783Z,101450.44
2018-11-07T03:21:53.267Z,101451.27
2018-11-07T03:24:22.745Z,101453.05
2018-11-07T03:26:51.193Z,101450.78
2018-11-07T03:29:19.639Z,101445.21
2018-11-07T03:31:48.973Z,100977.64
2018-11-07T03:34:17.469Z,101444.53
2018-11-07T03:36:45.972Z,101442.67
2018-11-07T03:39:14.718Z,101445.36
2018-11-07T03:41:43.239Z,101440.81
2018-11-07T03:44:11.998Z,101445.55
2018-11-07T03:46:40.665Z,101449.40
2018-11-07T03:49:09.138Z,101452.39
2018-11-07T03:51:37.599Z,101452.31
2018-11-07T03:54:06.616Z,101453.22
2018-11-07T03:56:35.581Z,101450.30
2018-11-07T03:59:04.054Z,101459.03
2018-11-07T04:01:32.701Z,101460.75
2018-11-07T04:04:01.154Z,101462.54
2018-11-07T04:06:29.638Z,101455.94
2018-11-07T04:08:58.509Z,101457.24
2018-11-07T04:11:26.969Z,101459.75
2018-11-07T04:13:55.443Z,101457.41
2018-11-07T04:16:24.118Z,101452.44
2018-11-07T04:18:52.594Z,101456.77
2018-11-07T04:21:21.531Z,101455.88
2018-11-07T04:23:55.553Z,101454.64
2018-11-07T04:26:24.532Z,101451.89
2018-11-07T04:28:52.980Z,101452.30
2018-11-07T04:31:21.565Z,101453.67
2018-11-07T04:33:50.292Z,101449.27
2018-11-07T04:36:18.856Z,101451.48
2018-11-07T04:38:47.602Z,101458.42
2018-11-07T04:41:16.321Z,101457.67
2018-11-07T04:43:45.132Z,101453.34
2018-11-07T04:46:13.922Z,101457.41
2018-11-07T04:48:43.019Z,101455.20
2018-11-07T04:51:11.458Z,101460.02
2018-11-07T04:53:40.391Z,101456.58
2018-11-07T04:56:08.928Z,101462.70
2018-11-07T04:58:37.423Z,101464.90
2018-11-07T05:01:07.008Z,101469.00
2018-11-07T05:03:36.017Z,101465.56
2018-11-07T05:06:04.700Z,101469.07
2018-11-07T05:08:33.632Z,101466.28
2018-11-07T05:11:02.489Z,101469.72
2018-11-07T05:13:31.173Z,101464.48
2018-11-07T05:15:59.782Z,101466.87
2018-11-07T05:18:28.677Z,101472.58
2018-11-07T05:20:57.125Z,101466.87
2018-11-07T05:23:26.151Z,101461.64
2018-11-07T05:25:54.838Z,101459.85
2018-11-07T05:28:23.279Z,101462.05
2018-11-07T05:30:52.824Z,101457.95
2018-11-07T05:33:21.585Z,101456.17
2018-11-07T05:35:50.078Z,101451.77
2018-11-07T05:38:18.627Z,101454.11
2018-11-07T05:40:47.656Z,101458.03
2018-11-07T05:43:16.113Z,101455.27
2018-11-07T05:45:44.724Z,101452.52
2018-11-07T05:48:13.649Z,101448.59
2018-11-07T05:50:42.143Z,101462.62
2018-11-07T05:53:10.705Z,101460.77
2018-11-07T05:55:39.349Z,101463.72
2018-11-07T05:58:07.805Z,101466.04
2018-11-07T06:00:36.369Z,101476.41
2018-11-07T06:03:05.118Z,101479.84
2018-11-07T06:05:33.599Z,101477.58
2018-11-07T06:08:02.526Z,101478.47
2018-11-07T06:10:31.060Z,101480.81
2018-11-07T06:12:59.497Z,101478.06
2018-11-07T06:15:28.054Z,101489.89
2018-11-07T06:17:56.596Z,101486.30
2018-11-07T06:20:25.138Z,101492.35
2018-11-07T06:22:53.752Z,101492.42
2018-11-07T06:25:22.825Z,101483.77
2018-11-07T06:27:51.444Z,101486.86
2018-11-07T06:30:20.013Z,101483.43
2018-11-07T06:32:48.574Z,101487.49
2018-11-07T06:35:17.013Z,101490.73
2018-11-07T06:37:45.792Z,101494.80
2018-11-07T06:40:14.465Z,101500.17
2018-11-07T06:42:42.919Z,101502.72
2018-11-07T06:45:12.469Z,101502.72
2018-11-07T06:47:41.152Z,101502.30
2018-11-07T06:50:13.170Z,101508.91
2018-11-07T06:52:41.698Z,101504.91
2018-11-07T06:55:10.853Z,101506.15
2018-11-07T06:57:40.191Z,101507.94
2018-11-07T07:00:10.753Z,101506.37
2018-11-07T07:02:39.386Z,101510.28
2018-11-07T07:05:08.684Z,101515.84
2018-11-07T07:07:38.778Z,101514.13
2018-11-07T07:10:11.245Z,101512.83
2018-11-07T07:12:39.810Z,101513.16
2018-11-07T07:15:10.366Z,101512.61
2018-11-07T07:17:39.467Z,101517.34
2018-11-07T07:20:11.353Z,101514.25
2018-11-07T07:22:40.812Z,101529.11
2018-11-07T07:25:10.267Z,101525.59
2018-11-07T07:27:39.145Z,101522.09
2018-11-07T07:30:11.029Z,101529.92
2018-11-07T07:32:40.016Z,101534.41
2018-11-07T07:35:08.866Z,101536.34
2018-11-07T07:37:37.558Z,101532.61
2018-11-07T07:40:08.577Z,101539.03
2018-11-07T07:42:37.407Z,101543.62
2018-11-07T07:45:07.825Z,101542.09
2018-11-07T07:47:36.745Z,101534.33
2018-11-07T07:50:06.533Z,101539.70
2018-11-07T07:52:35.058Z,101539.44
2018-11-07T07:55:04.214Z,101543.06
2018-11-07T07:57:32.659Z,101543.28
2018-11-07T08:00:01.534Z,101540.86
2018-11-07T08:02:30.292Z,101542.17
2018-11-07T08:04:58.750Z,101542.98
2018-11-07T08:07:27.753Z,101546.02
2018-11-07T08:09:56.673Z,101543.73
2018-11-07T08:12:25.142Z,101541.05
2018-11-07T08:14:53.763Z,101551.72
2018-11-07T08:17:22.346Z,101546.16
2018-11-07T08:19:50.795Z,101545.41
2018-11-07T08:22:19.493Z,101551.39
2018-11-07T08:24:48.153Z,101547.20
2018-11-07T08:27:16.609Z,101554.14
2018-11-07T08:29:45.821Z,101548.98
2018-11-07T08:32:14.602Z,101552.02
2018-11-07T08:34:43.038Z,101547.68
2018-11-07T08:37:11.645Z,101545.63
2018-11-07T08:39:40.293Z,101545.02
2018-11-07T08:42:08.755Z,101551.78
2018-11-07T08:44:37.566Z,101548.75
2018-11-07T08:47:06.670Z,101553.08
2018-11-07T08:49:35.113Z,101552.12
2018-11-07T08:52:03.857Z,101554.80
2018-11-07T08:54:32.426Z,101555.96
2018-11-07T08:57:00.978Z,101551.70
2018-11-07T08:59:30.250Z,101557.08
2018-11-07T09:01:59.057Z,101556.11
2018-11-07T09:04:27.578Z,101558.94
2018-11-07T09:06:56.409Z,101561.28
2018-11-07T09:09:24.994Z,101563.64
2018-11-07T09:11:53.472Z,101564.34
2018-11-07T09:14:22.158Z,101569.56
2018-11-07T09:16:50.745Z,101569.56
2018-11-07T09:19:19.193Z,101575.77
2018-11-07T09:21:47.720Z,101572.45
2018-11-07T09:24:16.751Z,101571.41
2018-11-07T09:26:45.201Z,101569.77
2018-11-07T09:29:14.248Z,101576.52
2018-11-07T09:31:43.689Z,101573.97
2018-11-07T09:34:12.150Z,101575.35
2018-11-07T09:36:40.681Z,101571.50
2018-11-07T09:39:10.317Z,101569.71
2018-11-07T09:41:38.797Z,101565.72
2018-11-07T09:44:08.167Z,101568.53
2018-11-07T09:46:36.905Z,101572.03
2018-11-07T09:49:05.406Z,101572.18
2018-11-07T09:51:34.590Z,101577.07
2018-11-07T09:54:03.592Z,101575.28
2018-11-07T09:56:32.167Z,101572.11
2018-11-07T09:59:00.889Z,101572.03
2018-11-07T10:01:29.743Z,101566.54
2018-11-07T10:03:58.273Z,101568.89
2018-11-07T10:06:27.589Z,101561.87
2018-11-07T10:08:56.265Z,101555.81
2018-11-07T10:11:24.953Z,101558.09
2018-11-07T10:13:53.517Z,101553.48
2018-11-07T10:16:22.391Z,101550.53
2018-11-07T10:18:50.843Z,101525.39
2018-11-07T10:21:19.634Z,101549.91
2018-11-07T10:23:48.537Z,101560.44
2018-11-07T10:26:17.076Z,101554.94
2018-11-07T10:28:45.877Z,101558.11
2018-11-07T10:31:14.482Z,101562.44
2018-11-07T10:33:43.482Z,101567.45
2018-11-07T10:36:12.034Z,101564.91
2018-11-07T10:38:41.254Z,101564.09
2018-11-07T10:41:09.585Z,101567.80
2018-11-07T10:43:38.529Z,101567.66
2018-11-07T10:46:07.586Z,101566.27
2018-11-07T10:48:36.022Z,101568.20
2018-11-07T10:51:04.841Z,101568.35
2018-11-07T10:53:33.658Z,101568.35
2018-11-07T10:56:02.214Z,101570.34
2018-11-07T10:58:30.880Z,101569.37
2018-11-07T11:01:04.690Z,101568.55
2018-11-07T11:03:33.797Z,101565.59
2018-11-07T11:06:02.308Z,101566.97
2018-11-07T11:08:30.803Z,101566.56
2018-11-07T11:11:00.451Z,101561.74
2018-11-07T11:13:28.961Z,101561.06
2018-11-07T11:18:32.936Z,101559.05
2018-11-07T11:21:01.506Z,101556.09
2018-11-07T11:23:30.345Z,101549.83
2018-11-07T11:25:59.099Z,101552.11
2018-11-07T11:28:27.593Z,101545.84
2018-11-07T11:30:56.384Z,101551.34
2018-11-07T11:33:25.215Z,101546.52
2018-11-07T11:35:53.877Z,101550.86
2018-11-07T11:38:22.845Z,101553.05
2018-11-07T11:40:51.952Z,101550.03
2018-11-07T11:43:20.634Z,101553.61
2018-11-07T11:45:49.176Z,101542.67
2018-11-07T11:48:17.972Z,101551.89
2018-11-07T11:50:46.465Z,101548.04
2018-11-07T11:53:15.180Z,101548.19
2018-11-07T11:55:43.736Z,101547.02
2018-11-07T11:58:12.238Z,101551.36
2018-11-07T12:00:40.951Z,101547.77
2018-11-07T12:03:09.521Z,101553.83
2018-11-07T12:05:37.987Z,101549.91
2018-11-07T12:08:06.702Z,101551.63
2018-11-07T12:10:35.230Z,101553.00
2018-11-07T12:13:03.716Z,101475.35
2018-11-07T12:15:32.288Z,101546.33
2018-11-07T12:18:01.162Z,101547.56
2018-11-07T12:20:29.642Z,101544.95
2018-11-07T12:22:58.202Z,101545.84
2018-11-07T12:25:27.220Z,101541.09
2018-11-07T12:27:55.703Z,101541.92
2018-11-07T12:30:25.443Z,101545.84
2018-11-07T12:32:54.889Z,101542.67
2018-11-07T12:35:23.801Z,101543.08
2018-11-07T12:37:52.738Z,101541.36
2018-11-07T12:40:21.861Z,101543.42
2018-11-07T12:42:50.465Z,101550.78
2018-11-07T12:45:19.465Z,101543.42
2018-11-07T12:47:48.071Z,101546.93
2018-11-07T12:50:18.536Z,101546.03
2018-11-07T12:52:47.395Z,101542.94
2018-11-07T12:55:16.114Z,101543.77
2018-11-07T12:57:44.772Z,101537.91
2018-11-07T13:00:16.801Z,101540.30
2018-11-07T13:02:45.621Z,101547.59
2018-11-07T13:05:15.354Z,101548.00
2018-11-07T13:07:45.024Z,101541.54
2018-11-07T13:10:14.922Z,101541.54
2018-11-07T13:12:44.389Z,101546.77
2018-11-07T13:15:13.767Z,101537.62
2018-11-07T13:17:42.587Z,101540.57
2018-11-07T13:20:13.650Z,101541.39
2018-11-07T13:22:42.794Z,101537.47
2018-11-07T13:25:12.245Z,101534.78
2018-11-07T13:27:40.766Z,101534.03
2018-11-07T13:30:11.945Z,101535.83
2018-11-07T13:32:40.911Z,101539.27
2018-11-07T13:35:10.376Z,101538.16
2018-11-07T13:37:39.931Z,101536.70
2018-11-07T13:40:12.134Z,101535.39
2018-11-07T13:42:40.982Z,101536.77
2018-11-07T13:45:11.502Z,101536.62
2018-11-07T13:47:40.977Z,101536.81
2018-11-07T13:50:10.232Z,101535.03
2018-11-07T13:52:38.701Z,101531.78
2018-11-07T13:55:08.908Z,101533.39
2018-11-07T13:57:38.321Z,101534.32
2018-11-07T14:00:10.894Z,101533.98
2018-11-07T14:02:39.841Z,101528.09
2018-11-07T14:05:09.458Z,101531.94
2018-11-07T14:07:38.094Z,101531.86
2018-11-07T14:10:09.427Z,101531.05
2018-11-07T14:12:38.048Z,101534.70
2018-11-07T14:15:08.767Z,101532.08
2018-11-07T14:17:37.742Z,101534.21
2018-11-07T14:20:07.104Z,101529.33
2018-11-07T14:22:35.670Z,101532.83
2018-11-07T14:25:04.565Z,101532.61
2018-11-07T14:27:33.543Z,101528.76
2018-11-07T14:30:02.239Z,101529.66
2018-11-07T14:32:31.214Z,101528.76
2018-11-07T14:34:59.964Z,101528.09
2018-11-07T14:37:28.534Z,101527.68
2018-11-07T14:39:56.992Z,101523.69
2018-11-07T14:42:25.862Z,101521.63
2018-11-07T14:44:54.559Z,101525.17
2018-11-07T14:47:23.146Z,101516.81
2018-11-07T14:49:52.074Z,101517.16
2018-11-07T14:52:20.820Z,101512.75
2018-11-07T14:54:49.385Z,101517.16
2018-11-07T14:57:17.994Z,101514.06
2018-11-07T14:59:46.680Z,101516.81
2018-11-07T15:02:15.132Z,101519.95
2018-11-07T15:04:43.951Z,101512.00
2018-11-07T15:07:13.434Z,101517.16
2018-11-07T15:09:41.877Z,101517.16
2018-11-07T15:12:10.551Z,101519.84
2018-11-07T15:14:39.291Z,101519.36
2018-11-07T15:17:07.834Z,101518.54
2018-11-07T15:19:36.671Z,101520.44
2018-11-07T15:22:05.946Z,101515.20
2018-11-07T15:24:34.395Z,101517.00
2018-11-07T15:27:03.443Z,101512.11
2018-11-07T15:29:32.024Z,101515.20
2018-11-07T15:32:00.481Z,101515.63
2018-11-07T15:34:29.074Z,101518.23
2018-11-07T15:36:57.761Z,101514.55
2018-11-07T15:39:26.573Z,101517.56
2018-11-07T15:41:55.264Z,101524.44
2018-11-07T15:44:24.438Z,101522.16
2018-11-07T15:46:53.060Z,101518.98
2018-11-07T15:49:21.759Z,101531.72
2018-11-07T15:51:54.285Z,101528.63
2018-11-07T15:54:23.164Z,101530.89
2018-11-07T15:56:51.999Z,101537.09
2018-11-07T15:59:20.457Z,101533.92
2018-11-07T16:01:49.183Z,101533.02
2018-11-07T16:04:17.722Z,101536.45
2018-11-07T16:06:46.214Z,101532.88
2018-11-07T16:09:15.238Z,101538.92
2018-11-07T16:11:43.859Z,101538.58
2018-11-07T16:14:12.316Z,101526.91
2018-11-07T16:16:41.289Z,101537.77
2018-11-07T16:19:09.824Z,101536.53
2018-11-07T16:21:38.325Z,101542.39
2018-11-07T16:24:06.982Z,101542.05
2018-11-07T16:26:35.497Z,101545.83
2018-11-07T16:29:03.984Z,101540.59
2018-11-07T16:31:32.801Z,101546.72
2018-11-07T16:34:01.522Z,101541.42
2018-11-07T16:36:30.422Z,101544.78
2018-11-07T16:38:59.518Z,101549.19
2018-11-07T16:41:28.319Z,101549.59
2018-11-07T16:43:56.701Z,101551.72
2018-11-07T16:46:25.498Z,101554.67
2018-11-07T16:48:54.069Z,101547.58
2018-11-07T16:51:22.636Z,101545.37
2018-11-07T16:53:51.205Z,101541.45
2018-11-07T16:56:19.763Z,101538.29
2018-11-07T16:58:48.388Z,101548.59
2018-11-07T17:01:17.326Z,101546.87
2018-11-07T17:03:45.933Z,101544.19
2018-11-07T17:06:14.464Z,101540.67
2018-11-07T17:08:43.061Z,101539.85
2018-11-07T17:11:11.634Z,101536.49
2018-11-07T17:13:40.120Z,101539.25
2018-11-07T17:16:08.714Z,101531.42
2018-11-07T17:18:37.319Z,101535.00
2018-11-07T17:21:05.839Z,101540.30
2018-11-07T17:23:34.630Z,101543.40
2018-11-07T17:26:03.313Z,101556.39
2018-11-07T17:28:31.753Z,101557.28
2018-11-07T17:31:00.429Z,101559.00
2018-11-07T17:33:29.452Z,101555.42
2018-11-07T17:35:58.053Z,101556.72
2018-11-07T17:38:26.811Z,101557.95
2018-11-07T17:40:55.929Z,101559.34
2018-11-07T17:43:31.417Z,101561.53
2018-11-07T17:45:59.976Z,101565.37
2018-11-07T17:48:28.623Z,101563.17
2018-11-07T17:50:57.185Z,101559.67
2018-11-07T17:53:25.936Z,101558.29
2018-11-07T17:55:54.603Z,101563.92
2018-11-07T17:58:23.273Z,101560.42
2018-11-07T18:00:51.893Z,101555.53
2018-11-07T18:03:20.378Z,101557.66
2018-11-07T18:05:49.288Z,101565.90
2018-11-07T18:08:18.024Z,101564.59
2018-11-07T18:10:46.522Z,101572.58
2018-11-07T18:13:15.711Z,101568.73
2018-11-07T18:15:44.708Z,101565.64
2018-11-07T18:18:13.206Z,101561.50
2018-11-07T18:20:41.853Z,101564.92
2018-11-07T18:23:10.762Z,101565.27
2018-11-07T18:25:39.332Z,101564.85
2018-11-07T18:28:08.126Z,101564.37
2018-11-07T18:30:36.685Z,101566.91
2018-11-07T18:33:05.900Z,101569.84
2018-11-07T18:35:34.792Z,101569.84
2018-11-07T18:38:03.449Z,101575.07
2018-11-07T18:40:32.010Z,101580.96
2018-11-07T18:43:00.791Z,101584.72
2018-11-07T18:45:29.356Z,101582.37
2018-11-07T18:47:57.919Z,101590.13
2018-11-07T18:50:26.757Z,101588.17
2018-11-07T18:52:55.444Z,101593.40
2018-11-07T18:55:24.072Z,101591.94
2018-11-07T18:57:53.291Z,101596.19
2018-11-07T19:00:21.945Z,101596.55
2018-11-07T19:02:51.073Z,101586.44
2018-11-07T19:05:19.871Z,101589.53
2018-11-07T19:07:48.652Z,101588.77
2018-11-07T19:10:18.550Z,101592.27
2018-11-07T19:12:48.122Z,101588.51
2018-11-07T19:15:17.196Z,101595.52
2018-11-07T19:17:46.625Z,101599.44
2018-11-07T19:20:16.231Z,101609.23
2018-11-07T19:22:44.899Z,101598.80
2018-11-07T19:25:14.762Z,101599.77
2018-11-07T19:27:43.643Z,101609.06
2018-11-07T19:30:19.369Z,101606.30
2018-11-07T19:32:49.265Z,101607.12
2018-11-07T19:35:18.491Z,101601.48
2018-11-07T19:37:47.757Z,101591.78
2018-11-07T19:40:17.900Z,101602.79
2018-11-07T19:42:47.573Z,101604.42
2018-11-07T19:45:17.419Z,101606.14
2018-11-07T19:47:46.117Z,101606.55
2018-11-07T19:50:15.685Z,101600.92
2018-11-07T19:52:45.242Z,101603.13
2018-11-07T19:55:17.350Z,101606.14
2018-11-07T19:57:48.041Z,101610.05
2018-11-07T20:00:17.544Z,101609.16
2018-11-07T20:02:46.989Z,101612.63
2018-11-07T20:05:15.767Z,101615.28
2018-11-07T20:07:44.459Z,101616.58
2018-11-07T20:10:16.167Z,101621.80
2018-11-07T20:12:45.026Z,101610.47
2018-11-07T20:15:14.780Z,101622.17
2018-11-07T20:17:44.498Z,101618.17
2018-11-07T20:20:13.502Z,101619.07
2018-11-07T20:22:42.040Z,101618.25
2018-11-07T20:25:11.765Z,101620.50
2018-11-07T20:27:40.502Z,101619.20
2018-11-07T20:30:10.882Z,101617.07
2018-11-07T20:32:39.832Z,101615.84
2018-11-07T20:35:10.489Z,101621.06
2018-11-07T20:37:39.078Z,101622.94
2018-11-07T20:40:11.120Z,101622.12
2018-11-07T20:42:39.956Z,101617.38
2018-11-07T20:45:09.422Z,101610.94
2018-11-07T20:47:44.710Z,101625.86
2018-11-07T20:50:15.714Z,101626.91
2018-11-07T20:52:45.285Z,101627.00
2018-11-07T20:55:14.434Z,101632.22
2018-11-07T20:57:42.995Z,101639.16
2018-11-07T21:00:15.167Z,101635.98
2018-11-07T21:02:44.259Z,101639.08
2018-11-07T21:05:13.039Z,101642.59
2018-11-07T21:07:42.179Z,101645.04
2018-11-07T21:10:13.469Z,101647.66
2018-11-07T21:12:42.622Z,101647.57
2018-11-07T21:15:12.397Z,101646.75
2018-11-07T21:17:41.810Z,101649.85
2018-11-07T21:20:10.401Z,101651.98
2018-11-07T21:22:39.669Z,101639.81
2018-11-07T21:25:08.613Z,101635.48
2018-11-07T21:27:37.322Z,101638.52
2018-11-07T21:30:08.766Z,101637.61
2018-11-07T21:32:37.826Z,101641.05
2018-11-07T21:35:06.750Z,101636.72
2018-11-07T21:37:35.477Z,101636.80
2018-11-07T21:40:04.578Z,101635.08
2018-11-07T21:42:33.130Z,101639.08
2018-11-07T21:45:01.824Z,101634.19
2018-11-07T21:47:30.854Z,101640.97
2018-11-07T21:49:59.342Z,101627.34
2018-11-07T21:52:28.469Z,101628.31
2018-11-07T21:54:57.676Z,101625.70
2018-11-07T21:57:26.133Z,101627.98
2018-11-07T21:59:54.693Z,101629.78
2018-11-07T22:02:23.668Z,101634.11
2018-11-07T22:04:52.112Z,101629.30
2018-11-07T22:07:20.891Z,101634.11
2018-11-07T22:09:49.640Z,101628.40
2018-11-07T22:12:18.148Z,101627.02
2018-11-07T22:14:47.260Z,101636.64
2018-11-07T22:17:16.294Z,101637.87
2018-11-07T22:19:44.797Z,101634.03
2018-11-07T22:22:13.673Z,101634.11
2018-11-07T22:24:42.538Z,101635.82
2018-11-07T22:27:11.070Z,101642.84
2018-11-07T22:29:39.713Z,101635.02
2018-11-07T22:32:08.477Z,101643.58
2018-11-07T22:34:37.062Z,101645.62
2018-11-07T22:37:05.913Z,101650.92
2018-11-07T22:39:34.554Z,101645.62
2018-11-07T22:42:03.278Z,101652.48
2018-11-07T22:44:31.928Z,101655.41
2018-11-07T22:47:01.567Z,101652.32
2018-11-07T22:49:30.018Z,101647.99
2018-11-07T22:51:58.778Z,101652.73
2018-11-07T22:54:27.399Z,101654.80
2018-11-07T22:56:56.401Z,101659.05
2018-11-07T22:59:24.970Z,101658.97
2018-11-07T23:01:53.625Z,101657.17
2018-11-07T23:04:22.057Z,101658.89
2018-11-07T23:06:50.877Z,101663.63
2018-11-07T23:09:19.488Z,101660.60
2018-11-07T23:11:48.034Z,101666.72
2018-11-07T23:14:17.237Z,101668.84
2018-11-07T23:16:46.019Z,101667.13
2018-11-07T23:19:14.503Z,101671.78
2018-11-07T23:21:43.304Z,101669.09
2018-11-07T23:24:12.406Z,101675.70
2018-11-07T23:26:40.877Z,101671.86
2018-11-07T23:29:09.663Z,101672.02
2018-11-07T23:31:38.699Z,101669.82
2018-11-07T23:34:07.174Z,101675.20
2018-11-07T23:36:36.022Z,101677.89
2018-11-07T23:39:07.016Z,101675.20
2018-11-07T23:41:35.463Z,101672.10
2018-11-07T23:44:04.265Z,101665.91
2018-11-07T23:46:32.934Z,101666.72
2018-11-07T23:49:01.417Z,101658.89
2018-11-07T23:51:29.995Z,101651.13
2018-11-07T23:53:58.805Z,101652.52
2018-11-07T23:56:27.254Z,101656.52
2018-11-07T23:58:56.646Z,101664.43
